KEN71F EHAM-EDDH
Flight info
| Callsign | KEN71F |
|---|---|
| Flight time | 0h 53m |
| Altitude | 39000 |
| Route | ANDIK N873 GRONY DCT RIBSO RIBSO7A |
| Aircraft | C700/M-SBDGHM1RWXY/LB2 |
Departure
| Time | 2026-05-06 19:01 |
|---|---|
| Airport | Amsterdam Airport Schiphol (EHAM) |
Arrival
| Time | 2026-05-06 19:55 |
|---|---|
| Airport | Hamburg Helmut Schmidt Airport (EDDH) |
| Time | Latitude | Longitude | Altitude | Speed | Heading |
|---|---|---|---|---|---|
| 2026-05-06 18:24 | 52.31114 | 4.76712 | -8 ft | 0 kts | 302° |
| 2026-05-06 18:45 | 52.31106 | 4.76732 | -8 ft | 2 kts | 305° |
| 2026-05-06 18:45 | 52.31100 | 4.76746 | -8 ft | 2 kts | 309° |
| 2026-05-06 18:46 | 52.31084 | 4.76771 | -8 ft | 2 kts | 335° |
| 2026-05-06 18:46 | 52.31069 | 4.76771 | -8 ft | 1 kts | 31° |
| 2026-05-06 18:46 | 52.31068 | 4.76770 | -8 ft | 0 kts | 33° |
| 2026-05-06 18:47 | 52.31057 | 4.76778 | -8 ft | 2 kts | 321° |
| 2026-05-06 18:47 | 52.31044 | 4.76795 | -8 ft | 2 kts | 323° |
| 2026-05-06 18:47 | 52.31032 | 4.76806 | -8 ft | 1 kts | 2° |
| 2026-05-06 18:47 | 52.31033 | 4.76809 | -8 ft | 2 kts | 26° |
| 2026-05-06 18:48 | 52.31042 | 4.76820 | -8 ft | 0 kts | 35° |
| 2026-05-06 18:49 | 52.31064 | 4.76845 | -8 ft | 7 kts | 35° |
| 2026-05-06 18:49 | 52.31095 | 4.76888 | -8 ft | 6 kts | 31° |
| 2026-05-06 18:50 | 52.31122 | 4.76957 | -8 ft | 9 kts | 135° |
| 2026-05-06 18:50 | 52.31084 | 4.77072 | -8 ft | 14 kts | 95° |
| 2026-05-06 18:50 | 52.31079 | 4.77254 | -8 ft | 18 kts | 92° |
| 2026-05-06 18:50 | 52.31076 | 4.77416 | -8 ft | 10 kts | 94° |
| 2026-05-06 18:51 | 52.31027 | 4.77485 | -8 ft | 12 kts | 183° |
| 2026-05-06 18:51 | 52.30926 | 4.77477 | -8 ft | 17 kts | 183° |
| 2026-05-06 18:51 | 52.30842 | 4.77470 | -8 ft | 19 kts | 183° |
| 2026-05-06 18:51 | 52.30710 | 4.77457 | -8 ft | 0 kts | 183° |
| 2026-05-06 18:52 | 52.30677 | 4.77452 | -8 ft | 9 kts | 192° |
| 2026-05-06 18:52 | 52.30622 | 4.77372 | -8 ft | 13 kts | 233° |
| 2026-05-06 18:52 | 52.30565 | 4.77227 | -8 ft | 17 kts | 238° |
| 2026-05-06 18:52 | 52.30495 | 4.77042 | -8 ft | 21 kts | 238° |
| 2026-05-06 18:53 | 52.30442 | 4.76903 | -8 ft | 12 kts | 238° |
| 2026-05-06 18:53 | 52.30419 | 4.76844 | -8 ft | 8 kts | 238° |
| 2026-05-06 18:53 | 52.30381 | 4.76745 | -8 ft | 12 kts | 237° |
| 2026-05-06 18:53 | 52.30327 | 4.76605 | -8 ft | 17 kts | 238° |
| 2026-05-06 18:54 | 52.30260 | 4.76429 | -8 ft | 20 kts | 238° |
| 2026-05-06 18:54 | 52.30177 | 4.76212 | -8 ft | 21 kts | 238° |
| 2026-05-06 18:54 | 52.30132 | 4.76095 | -8 ft | 14 kts | 237° |
| 2026-05-06 18:54 | 52.30073 | 4.75941 | -8 ft | 18 kts | 238° |
| 2026-05-06 18:55 | 52.30019 | 4.75801 | -8 ft | 0 kts | 238° |
| 2026-05-06 18:55 | 52.30008 | 4.75772 | -8 ft | 6 kts | 238° |
| 2026-05-06 18:55 | 52.29978 | 4.75693 | -8 ft | 10 kts | 238° |
| 2026-05-06 18:55 | 52.29932 | 4.75575 | -8 ft | 15 kts | 238° |
| 2026-05-06 18:56 | 52.29873 | 4.75425 | -8 ft | 2 kts | 237° |
| 2026-05-06 18:56 | 52.29858 | 4.75384 | -8 ft | 10 kts | 240° |
| 2026-05-06 18:56 | 52.29832 | 4.75257 | -8 ft | 14 kts | 278° |
| 2026-05-06 18:56 | 52.29887 | 4.75108 | -8 ft | 17 kts | 311° |
| 2026-05-06 18:57 | 52.29975 | 4.74946 | -8 ft | 21 kts | 311° |
| 2026-05-06 18:57 | 52.30078 | 4.74757 | -8 ft | 24 kts | 311° |
| 2026-05-06 18:57 | 52.30162 | 4.74601 | -8 ft | 8 kts | 309° |
| 2026-05-06 18:57 | 52.30209 | 4.74514 | -8 ft | 12 kts | 312° |
| 2026-05-06 18:58 | 52.30273 | 4.74396 | -8 ft | 16 kts | 310° |
| 2026-05-06 18:58 | 52.30315 | 4.74316 | -8 ft | 10 kts | 311° |
| 2026-05-06 18:58 | 52.30352 | 4.74212 | -8 ft | 11 kts | 265° |
| 2026-05-06 18:58 | 52.30327 | 4.74072 | -8 ft | 15 kts | 243° |
| 2026-05-06 18:59 | 52.30258 | 4.73963 | -8 ft | 0 kts | 219° |
| 2026-05-06 18:59 | 52.30242 | 4.73944 | -8 ft | 8 kts | 215° |
| 2026-05-06 18:59 | 52.30214 | 4.73906 | -9 ft | 0 kts | 222° |
| 2026-05-06 19:00 | 52.30192 | 4.73863 | -9 ft | 12 kts | 241° |
| 2026-05-06 19:00 | 52.30223 | 4.73744 | -10 ft | 9 kts | 349° |
| 2026-05-06 19:00 | 52.30263 | 4.73740 | -12 ft | 17 kts | 3° |
| 2026-05-06 19:01 | 52.30759 | 4.73784 | -6 ft | 122 kts | 2° |
| 2026-05-06 19:01 | 52.31882 | 4.73894 | 194 ft | 191 kts | 4° |
| 2026-05-06 19:01 | 52.33363 | 4.74030 | 1169 ft | 228 kts | 4° |
| 2026-05-06 19:01 | 52.34972 | 4.73936 | 2945 ft | 237 kts | 357° |
| 2026-05-06 19:02 | 52.36645 | 4.73673 | 4770 ft | 249 kts | 357° |
| 2026-05-06 19:02 | 52.38414 | 4.73442 | 5858 ft | 297 kts | 358° |
| 2026-05-06 19:02 | 52.40619 | 4.73177 | 6222 ft | 304 kts | 357° |
| 2026-05-06 19:02 | 52.42673 | 4.72942 | 5799 ft | 286 kts | 358° |
| 2026-05-06 19:03 | 52.44830 | 4.72715 | 5720 ft | 328 kts | 359° |
| 2026-05-06 19:03 | 52.46987 | 4.72495 | 5624 ft | 295 kts | 358° |
| 2026-05-06 19:03 | 52.48939 | 4.72348 | 5505 ft | 268 kts | 2° |
| 2026-05-06 19:03 | 52.50690 | 4.72809 | 5371 ft | 246 kts | 19° |
| 2026-05-06 19:04 | 52.52225 | 4.73809 | 5232 ft | 230 kts | 29° |
| 2026-05-06 19:04 | 52.53517 | 4.75208 | 5093 ft | 217 kts | 39° |
| 2026-05-06 19:04 | 52.54560 | 4.76876 | 5071 ft | 202 kts | 49° |
| 2026-05-06 19:04 | 52.55351 | 4.78687 | 5063 ft | 189 kts | 58° |
| 2026-05-06 19:05 | 52.55902 | 4.80518 | 5062 ft | 179 kts | 66° |
| 2026-05-06 19:05 | 52.56270 | 4.82380 | 5065 ft | 169 kts | 72° |
| 2026-05-06 19:05 | 52.56613 | 4.84169 | 5069 ft | 160 kts | 70° |
| 2026-05-06 19:05 | 52.56945 | 4.85875 | 5063 ft | 153 kts | 71° |
| 2026-05-06 19:06 | 52.57255 | 4.87515 | 5069 ft | 146 kts | 70° |
| 2026-05-06 19:06 | 52.57556 | 4.89073 | 5063 ft | 149 kts | 70° |
| 2026-05-06 19:06 | 52.57976 | 4.91235 | 5106 ft | 246 kts | 71° |
| 2026-05-06 19:06 | 52.58599 | 4.94311 | 5122 ft | 319 kts | 66° |
| 2026-05-06 19:07 | 52.59723 | 4.97234 | 5106 ft | 287 kts | 51° |
| 2026-05-06 19:07 | 52.60728 | 4.99290 | 5098 ft | 263 kts | 51° |
| 2026-05-06 19:07 | 52.61786 | 5.01535 | 5098 ft | 241 kts | 52° |
| 2026-05-06 19:07 | 52.62781 | 5.03616 | 5094 ft | 222 kts | 51° |
| 2026-05-06 19:08 | 52.63707 | 5.05542 | 5087 ft | 208 kts | 51° |
| 2026-05-06 19:08 | 52.64575 | 5.07352 | 5084 ft | 196 kts | 51° |
| 2026-05-06 19:08 | 52.65392 | 5.09069 | 5070 ft | 185 kts | 51° |
| 2026-05-06 19:08 | 52.66169 | 5.10699 | 5081 ft | 176 kts | 51° |
| 2026-05-06 19:09 | 52.66906 | 5.12244 | 5072 ft | 168 kts | 51° |
| 2026-05-06 19:09 | 52.67544 | 5.13587 | 5082 ft | 161 kts | 51° |
| 2026-05-06 19:09 | 52.68222 | 5.15007 | 5073 ft | 155 kts | 51° |
| 2026-05-06 19:09 | 52.68873 | 5.16373 | 5070 ft | 149 kts | 51° |
| 2026-05-06 19:10 | 52.69480 | 5.17638 | 5075 ft | 143 kts | 51° |
| 2026-05-06 19:10 | 52.70070 | 5.18893 | 5076 ft | 138 kts | 51° |
| 2026-05-06 19:10 | 52.70657 | 5.20117 | 5076 ft | 133 kts | 50° |
| 2026-05-06 19:10 | 52.71198 | 5.21271 | 5072 ft | 129 kts | 52° |
| 2026-05-06 19:11 | 52.71741 | 5.22413 | 5048 ft | 126 kts | 50° |
| 2026-05-06 19:11 | 52.72251 | 5.23478 | 5521 ft | 120 kts | 51° |
| 2026-05-06 19:11 | 52.72826 | 5.24680 | 6591 ft | 148 kts | 52° |
| 2026-05-06 19:11 | 52.73508 | 5.26143 | 7802 ft | 173 kts | 51° |
| 2026-05-06 19:12 | 52.74281 | 5.27768 | 9174 ft | 192 kts | 51° |
| 2026-05-06 19:12 | 52.75126 | 5.29554 | 10565 ft | 207 kts | 50° |
| 2026-05-06 19:12 | 52.76069 | 5.31531 | 11795 ft | 235 kts | 49° |
| 2026-05-06 19:12 | 52.77209 | 5.33929 | 12197 ft | 288 kts | 50° |
| 2026-05-06 19:13 | 52.78465 | 5.36610 | 13840 ft | 302 kts | 50° |
| 2026-05-06 19:13 | 52.79776 | 5.39397 | 15343 ft | 312 kts | 50° |
| 2026-05-06 19:13 | 52.81129 | 5.42256 | 16909 ft | 319 kts | 50° |
| 2026-05-06 19:13 | 52.82502 | 5.45168 | 18494 ft | 323 kts | 50° |
| 2026-05-06 19:14 | 52.83881 | 5.48108 | 19951 ft | 323 kts | 50° |
| 2026-05-06 19:14 | 52.85254 | 5.51036 | 21473 ft | 320 kts | 51° |
| 2026-05-06 19:14 | 52.86606 | 5.53912 | 23056 ft | 313 kts | 51° |
| 2026-05-06 19:14 | 52.87918 | 5.56711 | 24473 ft | 305 kts | 51° |
| 2026-05-06 19:15 | 52.89263 | 5.59588 | 24940 ft | 333 kts | 51° |
| 2026-05-06 19:15 | 52.90769 | 5.62800 | 24956 ft | 373 kts | 51° |
| 2026-05-06 19:15 | 52.92415 | 5.66333 | 24964 ft | 410 kts | 52° |
| 2026-05-06 19:15 | 52.94229 | 5.70225 | 24968 ft | 444 kts | 52° |
| 2026-05-06 19:16 | 52.96182 | 5.74413 | 24971 ft | 475 kts | 52° |
| 2026-05-06 19:16 | 52.98217 | 5.78792 | 24971 ft | 470 kts | 52° |
| 2026-05-06 19:16 | 53.00124 | 5.82920 | 24965 ft | 430 kts | 52° |
| 2026-05-06 19:16 | 53.01877 | 5.86700 | 24965 ft | 397 kts | 52° |
| 2026-05-06 19:17 | 53.03497 | 5.90193 | 24953 ft | 369 kts | 52° |
| 2026-05-06 19:17 | 53.05014 | 5.93476 | 24946 ft | 346 kts | 52° |
| 2026-05-06 19:17 | 53.06433 | 5.96555 | 24948 ft | 325 kts | 52° |
| 2026-05-06 19:17 | 53.07769 | 5.99454 | 24934 ft | 307 kts | 52° |
| 2026-05-06 19:18 | 53.09020 | 6.02150 | 24935 ft | 290 kts | 49° |
| 2026-05-06 19:18 | 53.10109 | 6.04856 | 24935 ft | 275 kts | 71° |
| 2026-05-06 19:18 | 53.10376 | 6.07895 | 24940 ft | 259 kts | 91° |
| 2026-05-06 19:18 | 53.10378 | 6.10817 | 24935 ft | 247 kts | 92° |
| 2026-05-06 19:19 | 53.10371 | 6.13586 | 25083 ft | 225 kts | 92° |
| 2026-05-06 19:19 | 53.10376 | 6.15900 | 25841 ft | 185 kts | 92° |
| 2026-05-06 19:19 | 53.10414 | 6.18423 | 25224 ft | 268 kts | 89° |
| 2026-05-06 19:19 | 53.10449 | 6.21622 | 25825 ft | 276 kts | 92° |
| 2026-05-06 19:20 | 53.10425 | 6.24821 | 26595 ft | 278 kts | 93° |
| 2026-05-06 19:20 | 53.10402 | 6.28049 | 27359 ft | 280 kts | 93° |
| 2026-05-06 19:20 | 53.10378 | 6.31300 | 28152 ft | 281 kts | 93° |
| 2026-05-06 19:20 | 53.10358 | 6.34559 | 28964 ft | 281 kts | 93° |
| 2026-05-06 19:21 | 53.10338 | 6.37771 | 29794 ft | 280 kts | 93° |
| 2026-05-06 19:21 | 53.10321 | 6.40993 | 30545 ft | 278 kts | 93° |
| 2026-05-06 19:21 | 53.10112 | 6.44196 | 30935 ft | 286 kts | 112° |
| 2026-05-06 19:21 | 53.09007 | 6.47037 | 30958 ft | 304 kts | 142° |
| 2026-05-06 19:22 | 53.07162 | 6.48927 | 30962 ft | 324 kts | 159° |
| 2026-05-06 19:22 | 53.05000 | 6.50425 | 30962 ft | 349 kts | 162° |
| 2026-05-06 19:22 | 53.02650 | 6.51899 | 30962 ft | 373 kts | 162° |
| 2026-05-06 19:22 | 53.00149 | 6.53405 | 30964 ft | 395 kts | 163° |
| 2026-05-06 19:23 | 52.97480 | 6.54982 | 30960 ft | 416 kts | 163° |
| 2026-05-06 19:23 | 52.94681 | 6.56608 | 30957 ft | 436 kts | 163° |
| 2026-05-06 19:23 | 52.91759 | 6.58291 | 30952 ft | 454 kts | 163° |
| 2026-05-06 19:23 | 52.88715 | 6.60029 | 30947 ft | 471 kts | 163° |
| 2026-05-06 19:24 | 52.85580 | 6.61864 | 30960 ft | 486 kts | 160° |
| 2026-05-06 19:24 | 52.82452 | 6.63972 | 30935 ft | 474 kts | 162° |
| 2026-05-06 19:24 | 52.79582 | 6.66014 | 30919 ft | 439 kts | 151° |
| 2026-05-06 19:24 | 52.77339 | 6.69157 | 30905 ft | 412 kts | 131° |
| 2026-05-06 19:25 | 52.75973 | 6.73118 | 30909 ft | 389 kts | 110° |
| 2026-05-06 19:25 | 52.75596 | 6.77406 | 30907 ft | 369 kts | 88° |
| 2026-05-06 19:25 | 52.76157 | 6.81407 | 30904 ft | 349 kts | 70° |
| 2026-05-06 19:25 | 52.77106 | 6.84982 | 30903 ft | 331 kts | 65° |
| 2026-05-06 19:26 | 52.78104 | 6.88302 | 30907 ft | 314 kts | 63° |
| 2026-05-06 19:26 | 52.79080 | 6.91431 | 30900 ft | 299 kts | 63° |
| 2026-05-06 19:26 | 52.80017 | 6.94400 | 30896 ft | 285 kts | 63° |
| 2026-05-06 19:26 | 52.80903 | 6.97191 | 30895 ft | 271 kts | 63° |
| 2026-05-06 19:27 | 52.81775 | 6.99922 | 30889 ft | 264 kts | 63° |
| 2026-05-06 19:27 | 52.82664 | 7.02714 | 30905 ft | 293 kts | 63° |
| 2026-05-06 19:27 | 52.83654 | 7.05850 | 30925 ft | 324 kts | 63° |
| 2026-05-06 19:27 | 52.84745 | 7.09309 | 30928 ft | 354 kts | 63° |
| 2026-05-06 19:28 | 52.85931 | 7.13066 | 30933 ft | 383 kts | 63° |
| 2026-05-06 19:28 | 52.87206 | 7.17103 | 30938 ft | 410 kts | 63° |
| 2026-05-06 19:28 | 52.88569 | 7.21422 | 30936 ft | 435 kts | 63° |
| 2026-05-06 19:28 | 52.90008 | 7.25982 | 30935 ft | 459 kts | 63° |
| 2026-05-06 19:29 | 52.91523 | 7.30789 | 30935 ft | 481 kts | 63° |
| 2026-05-06 19:29 | 52.93106 | 7.35805 | 30933 ft | 502 kts | 63° |
| 2026-05-06 19:29 | 52.94712 | 7.40900 | 30311 ft | 488 kts | 63° |
| 2026-05-06 19:29 | 52.96247 | 7.45758 | 29482 ft | 466 kts | 63° |
| 2026-05-06 19:30 | 52.97725 | 7.50428 | 28519 ft | 449 kts | 63° |
| 2026-05-06 19:30 | 52.99136 | 7.54910 | 27515 ft | 437 kts | 63° |
| 2026-05-06 19:30 | 53.00524 | 7.59349 | 26349 ft | 430 kts | 63° |
| 2026-05-06 19:30 | 53.01885 | 7.63743 | 25222 ft | 424 kts | 63° |
| 2026-05-06 19:31 | 53.03216 | 7.68078 | 24141 ft | 419 kts | 63° |
| 2026-05-06 19:31 | 53.04514 | 7.72354 | 23026 ft | 413 kts | 63° |
| 2026-05-06 19:31 | 53.07047 | 7.80791 | 20651 ft | 402 kts | 63° |
| 2026-05-06 19:32 | 53.08318 | 7.85056 | 19488 ft | 395 kts | 63° |
| 2026-05-06 19:32 | 53.09486 | 7.88992 | 18460 ft | 389 kts | 63° |
| 2026-05-06 19:32 | 53.10673 | 7.93006 | 17283 ft | 383 kts | 63° |
| 2026-05-06 19:32 | 53.11837 | 7.96963 | 16121 ft | 378 kts | 63° |
| 2026-05-06 19:33 | 53.12960 | 8.00813 | 15007 ft | 372 kts | 63° |
| 2026-05-06 19:33 | 53.14072 | 8.04667 | 13921 ft | 366 kts | 63° |
| 2026-05-06 19:33 | 53.15159 | 8.08464 | 12749 ft | 360 kts | 63° |
| 2026-05-06 19:33 | 53.16223 | 8.12199 | 11593 ft | 354 kts | 63° |
| 2026-05-06 19:34 | 53.17265 | 8.15858 | 10916 ft | 339 kts | 63° |
| 2026-05-06 19:34 | 53.18224 | 8.19243 | 10898 ft | 307 kts | 63° |
| 2026-05-06 19:34 | 53.19105 | 8.22370 | 10890 ft | 289 kts | 63° |
| 2026-05-06 19:34 | 53.19938 | 8.25342 | 10890 ft | 279 kts | 63° |
| 2026-05-06 19:35 | 53.20754 | 8.28253 | 10892 ft | 275 kts | 63° |
| 2026-05-06 19:35 | 53.21558 | 8.31123 | 10893 ft | 274 kts | 63° |
| 2026-05-06 19:35 | 53.22370 | 8.34016 | 10893 ft | 275 kts | 63° |
| 2026-05-06 19:35 | 53.23182 | 8.36919 | 10893 ft | 276 kts | 63° |
| 2026-05-06 19:36 | 53.23994 | 8.39819 | 10896 ft | 276 kts | 63° |
| 2026-05-06 19:36 | 53.24794 | 8.42682 | 10894 ft | 276 kts | 63° |
| 2026-05-06 19:36 | 53.25611 | 8.45596 | 10893 ft | 276 kts | 63° |
| 2026-05-06 19:36 | 53.26422 | 8.48505 | 10892 ft | 277 kts | 63° |
| 2026-05-06 19:37 | 53.27236 | 8.51411 | 10891 ft | 277 kts | 63° |
| 2026-05-06 19:37 | 53.28049 | 8.54321 | 10893 ft | 277 kts | 63° |
| 2026-05-06 19:37 | 53.28865 | 8.57237 | 10894 ft | 277 kts | 63° |
| 2026-05-06 19:37 | 53.29675 | 8.60145 | 10893 ft | 277 kts | 64° |
| 2026-05-06 19:38 | 53.30492 | 8.63065 | 10892 ft | 277 kts | 63° |
| 2026-05-06 19:38 | 53.31303 | 8.65972 | 10892 ft | 277 kts | 64° |
| 2026-05-06 19:38 | 53.32118 | 8.68894 | 10890 ft | 277 kts | 64° |
| 2026-05-06 19:38 | 53.32929 | 8.71803 | 10891 ft | 277 kts | 64° |
| 2026-05-06 19:39 | 53.33734 | 8.74691 | 10893 ft | 277 kts | 64° |
| 2026-05-06 19:39 | 53.34559 | 8.77645 | 10891 ft | 276 kts | 63° |
| 2026-05-06 19:39 | 53.35329 | 8.80416 | 10889 ft | 256 kts | 63° |
| 2026-05-06 19:39 | 53.36051 | 8.83024 | 10884 ft | 238 kts | 63° |
| 2026-05-06 19:40 | 53.36763 | 8.85521 | 10383 ft | 244 kts | 63° |
| 2026-05-06 19:40 | 53.37563 | 8.88033 | 10023 ft | 243 kts | 58° |
| 2026-05-06 19:40 | 53.38510 | 8.90281 | 9957 ft | 228 kts | 49° |
| 2026-05-06 19:40 | 53.39660 | 8.92135 | 9616 ft | 235 kts | 37° |
| 2026-05-06 19:41 | 53.41098 | 8.93512 | 9215 ft | 241 kts | 21° |
| 2026-05-06 19:41 | 53.42603 | 8.94669 | 9165 ft | 232 kts | 36° |
| 2026-05-06 19:41 | 53.43675 | 8.96617 | 9079 ft | 228 kts | 52° |
| 2026-05-06 19:41 | 53.44628 | 8.98811 | 8681 ft | 236 kts | 53° |
| 2026-05-06 19:42 | 53.45594 | 9.01050 | 8092 ft | 244 kts | 53° |
| 2026-05-06 19:42 | 53.46602 | 9.03381 | 7721 ft | 250 kts | 53° |
| 2026-05-06 19:42 | 53.47635 | 9.05768 | 7355 ft | 255 kts | 54° |
| 2026-05-06 19:42 | 53.48686 | 9.08195 | 6929 ft | 259 kts | 53° |
| 2026-05-06 19:43 | 53.49744 | 9.10645 | 6417 ft | 260 kts | 54° |
| 2026-05-06 19:43 | 53.50812 | 9.13117 | 5902 ft | 261 kts | 54° |
| 2026-05-06 19:43 | 53.51876 | 9.15585 | 5384 ft | 261 kts | 54° |
| 2026-05-06 19:43 | 53.52790 | 9.18190 | 4857 ft | 260 kts | 71° |
| 2026-05-06 19:44 | 53.52859 | 9.21200 | 4315 ft | 261 kts | 104° |
| 2026-05-06 19:44 | 53.51972 | 9.23767 | 4005 ft | 251 kts | 138° |
| 2026-05-06 19:44 | 53.50511 | 9.24981 | 3996 ft | 231 kts | 171° |
| 2026-05-06 19:44 | 53.49005 | 9.24584 | 3992 ft | 214 kts | 208° |
| 2026-05-06 19:45 | 53.47788 | 9.23295 | 3980 ft | 201 kts | 202° |
| 2026-05-06 19:45 | 53.46462 | 9.23318 | 3982 ft | 191 kts | 156° |
| 2026-05-06 19:45 | 53.45567 | 9.24831 | 3986 ft | 183 kts | 112° |
| 2026-05-06 19:45 | 53.45266 | 9.26853 | 3989 ft | 174 kts | 103° |
| 2026-05-06 19:46 | 53.44975 | 9.28784 | 3992 ft | 167 kts | 104° |
| 2026-05-06 19:46 | 53.44686 | 9.30766 | 3993 ft | 188 kts | 104° |
| 2026-05-06 19:46 | 53.44356 | 9.33009 | 4014 ft | 207 kts | 104° |
| 2026-05-06 19:46 | 53.43996 | 9.35451 | 4018 ft | 224 kts | 104° |
| 2026-05-06 19:47 | 53.43618 | 9.38040 | 4017 ft | 230 kts | 104° |
| 2026-05-06 19:47 | 53.43244 | 9.40606 | 4015 ft | 231 kts | 104° |
| 2026-05-06 19:47 | 53.42862 | 9.43239 | 4015 ft | 233 kts | 104° |
| 2026-05-06 19:47 | 53.42476 | 9.45881 | 4012 ft | 233 kts | 104° |
| 2026-05-06 19:48 | 53.42087 | 9.48527 | 4003 ft | 234 kts | 104° |
| 2026-05-06 19:48 | 53.41966 | 9.51213 | 3999 ft | 233 kts | 81° |
| 2026-05-06 19:48 | 53.42372 | 9.53838 | 4008 ft | 233 kts | 73° |
| 2026-05-06 19:48 | 53.42811 | 9.56451 | 4003 ft | 233 kts | 74° |
| 2026-05-06 19:49 | 53.43254 | 9.59060 | 4004 ft | 234 kts | 74° |
| 2026-05-06 19:49 | 53.43698 | 9.61687 | 4004 ft | 233 kts | 74° |
| 2026-05-06 19:49 | 53.44144 | 9.64303 | 4007 ft | 233 kts | 73° |
| 2026-05-06 19:49 | 53.44592 | 9.66924 | 4016 ft | 235 kts | 73° |
| 2026-05-06 19:50 | 53.45044 | 9.69519 | 4002 ft | 234 kts | 71° |
| 2026-05-06 19:50 | 53.45977 | 9.71709 | 3988 ft | 233 kts | 36° |
| 2026-05-06 19:50 | 53.47415 | 9.72983 | 3888 ft | 237 kts | 24° |
| 2026-05-06 19:50 | 53.48941 | 9.74165 | 3574 ft | 242 kts | 24° |
| 2026-05-06 19:51 | 53.50456 | 9.75331 | 3261 ft | 238 kts | 24° |
| 2026-05-06 19:51 | 53.51870 | 9.76414 | 3000 ft | 204 kts | 24° |
| 2026-05-06 19:51 | 53.53005 | 9.77401 | 2984 ft | 166 kts | 32° |
| 2026-05-06 19:51 | 53.53877 | 9.78492 | 2977 ft | 148 kts | 42° |
| 2026-05-06 19:52 | 53.54615 | 9.79890 | 2998 ft | 196 kts | 50° |
| 2026-05-06 19:52 | 53.55581 | 9.82012 | 3023 ft | 238 kts | 54° |
| 2026-05-06 19:52 | 53.56525 | 9.84224 | 3009 ft | 221 kts | 54° |
| 2026-05-06 19:52 | 53.57386 | 9.86233 | 3006 ft | 208 kts | 54° |
| 2026-05-06 19:53 | 53.58204 | 9.88151 | 3012 ft | 197 kts | 53° |
| 2026-05-06 19:53 | 53.59008 | 9.89963 | 2849 ft | 191 kts | 52° |
| 2026-05-06 19:53 | 53.59723 | 9.91529 | 2333 ft | 151 kts | 53° |
| 2026-05-06 19:53 | 53.60284 | 9.92942 | 1684 ft | 137 kts | 58° |
| 2026-05-06 19:54 | 53.60822 | 9.94303 | 740 ft | 144 kts | 53° |
| 2026-05-06 19:54 | 53.61417 | 9.95534 | 237 ft | 128 kts | 50° |
| 2026-05-06 19:54 | 53.61928 | 9.96586 | 68 ft | 99 kts | 50° |
| 2026-05-06 19:54 | 53.62290 | 9.97307 | 40 ft | 57 kts | 50° |
| 2026-05-06 19:55 | 53.62469 | 9.97671 | 38 ft | 13 kts | 55° |
| 2026-05-06 19:55 | 53.62461 | 9.97792 | 38 ft | 9 kts | 135° |
| 2026-05-06 19:55 | 53.62430 | 9.97858 | 38 ft | 2 kts | 115° |
| 2026-05-06 19:55 | 53.62430 | 9.97859 | 38 ft | 0 kts | 113° |
| 2026-05-06 19:58 | 53.62434 | 9.97962 | 39 ft | 13 kts | 79° |
| 2026-05-06 19:58 | 53.62479 | 9.98122 | 39 ft | 17 kts | 52° |
| 2026-05-06 19:58 | 53.62562 | 9.98290 | 40 ft | 20 kts | 50° |
| 2026-05-06 19:58 | 53.62647 | 9.98466 | 40 ft | 18 kts | 51° |
| 2026-05-06 19:59 | 53.62735 | 9.98644 | 41 ft | 21 kts | 48° |
| 2026-05-06 19:59 | 53.62834 | 9.98843 | 41 ft | 19 kts | 53° |
| 2026-05-06 19:59 | 53.62835 | 9.98914 | 41 ft | 7 kts | 114° |
| 2026-05-06 19:59 | 53.62794 | 9.98977 | 41 ft | 8 kts | 104° |
| 2026-05-06 20:00 | 53.62807 | 9.99055 | 41 ft | 0 kts | 65° |
| 2026-05-06 20:00 | 53.62816 | 9.99084 | 41 ft | 0 kts | 63° |